Dauntless Aviation
Airports North America United States Washington
71WA

I-90/BELLEVUE BUSI PK BOEING COMP SVCS HDQ HELIPORT

BELLEVUE, WA, USA

Airport Info
Suggest Updated Information for this Airport

Location

Latitude / Longitude: 47°35'4"N / 122°7'46"W
  47°35.0727'N / 122°7.7739'W
  47.5845 / -122.1296
Elevation: 300 ft. (estimated)
Variation: 20E (1990)
From city: 04 miles SE of BELLEVUE, WA

Operations

Facility use: Private
Sectional chart: SEATTLE
Control tower: no
Boundary ARTCC: SEATTLE
FSS: SEATTLE [1-800-WX-BRIEF]
Segmented circle: no

Communications

Nearby radio navigation aids

VOR radial/distance VOR name Freq Var
SEA 39oT/11.6 SEATTLE VORTAC 116.80 19E
PAE 163oT/21.0 PAINE VOR/DME 110.60 20E
TCM 28oT/29.8 MCCHORD VORTAC 109.60 22E
 
NDB name Hdg/Dist Freq Var ID
RENTON 33oT/6.4 353 20E RNT
DONDO 29oT/15.1 224 19E ODD
KITSAP 77oT/26.0 206 20E PWT
CARNEY 70oT/30.6 274 20E CAN
GRAYE 36oT/32.5 216 18E GR
LACOMAS 27oT/38.7 328 18E LAC

Services

Runway Information

Helipad H1

Dimensions: 75 x 75 ft.
Surface: ASPHALT OR BITUMINOUS CONCRETE,NO SPECIAL SURFACE TREATMENT
 

Additional Remarks

Instrument Procedures

No published instrument procedures available
Topographic chart at:
Satellite photo at:
Airport distance calculator
From:
Weather Reports

METAR

KRNT
6.2nm S
KRNT 251253Z AUTO 17008KT 10SM BKN026 BKN080 OVC100 07/03 A2997 RMK AO2 SLP153 T00670033
KBFI
7.9nm SW
KBFI 251253Z 16008KT 10SM SCT016 BKN028 BKN110 07/04 A2996 RMK AO2 SLP145 T00720039
KSEA
11.1nm S
KSEA 251253Z 20013KT 10SM BKN018 BKN027 OVC080 06/04 A2996 RMK AO2 SLP152 T00610039 $
KPAE
20.9nm NW
KPAE 251253Z AUTO 20008KT 10SM OVC008 06/04 A2995 RMK AO2 CIG 004V009 SLP144 T00560044
KPWT
25.7nm SW
KPWT 251256Z AUTO 20010KT 10SM OVC007 05/04 A2995 RMK AO2 CIG 004V010 SLP147 T00500044 $
KTIW
26.5nm S
KTIW 251253Z AUTO 22011KT 6SM -RA BR FEW009 SCT015 OVC022 06/03 A2997 RMK AO2 RAB24 SLP152 P0001 T00560033

TAF

KBFI
7.9nm SW
KBFI 251122Z 2512/2612 15006KT P6SM VCSH BKN015 OVC030 FM252000 16006KT P6SM BKN025 FM260900 00000KT P6SM OVC015
KSEA
11.1nm S
KSEA 251122Z 2512/2618 18010KT P6SM VCSH SCT010 BKN020 OVC030 FM252000 19006KT P6SM BKN025 FM260100 13004KT P6SM OVC025 FM260900 15004KT P6SM OVC015
KPAE
20.9nm NW
KPAE 251122Z 2512/2612 18010KT P6SM VCSH BKN015 OVC030 FM252000 19007KT P6SM BKN025 FM260600 VRB03KT P6SM OVC015
KTCM
31.3nm S
TAF KTCM 250500Z 2505/2611 19010G15KT 8000 -SHRA BKN030 610409 QNH2992INS BECMG 2516/2517 20012KT 9999 VCSH BKN020 OVC040 610409 QNH3000INS BECMG 2522/2523 21009KT 9999 NSW BKN015 OVC030 620409 QNH3009INS BECMG 2602/2603 17005KT 4800 BR BKN007 OVC015 620405 QNH3021INS BECMG 2608/2609 16005KT 0800 FG VV002 QNH3032INS TX08/2522Z TN04/2513Z
KGRF
35.8nm S
TAF KGRF 250455Z 2505/2611 15011KT 9999 BKN030 610302 QNH2991INS BECMG 2510/2511 20005KT 8000 -SHRA BKN020 610302 QNH296INS BECMG 2523/2524 21005KT 9999 NSW BKN020 610302 QNH3010INS BECMG 2602/2603 23003KT 4800 BR SCT010 BKN015 QNH3018INS BECMG 2607/2608 25003KT 0800 FG FEW010 QNH3029INS TX08/2519Z TN05/2505Z
Safelog

 

Dauntless Aviation

© 2007-2020 Dauntless Aviation, all rights reserved
Information provided via PilotNav comes from a variety of official and unofficial data sources. As errors are possible, do not use PilotNav for primary flight planning purposes. Verify any information that you receive via PilotNav with current and canonical charts and other official documents. The material in this database is subject to database copyrights held by Dauntless Aviation and may not be copied without the express permission of Dauntless Aviation - licenses for use of part of all of this data are available for purchase; enquire via the Dauntless Aviation helpdesk. A number of mechanisms and markers exist in the database to protect against and identify infringement / copyright. Automated queries against this website are strictly prohibited, and all activity is logged and analyzed.